map of NVT home
Great Circle Mapper logo
NVT - Airport
Location
City:  Navegantes, Santa Catarina, Brazil
Name:Ministro Victor Konder International Airport
ICAO / IATA:SBNF / NVT

Details
Type:Airport (Aerodrome, Airfield)
Use:International (customs port of entry)
Latitude:2652'48"S (-26.879998)
Longitude:4839'05"W (-48.651389)
Datum:WGS 1984
Elevation:18 ft (5 m)
Variation:19.12W (WMM2015 magnetic declination)
-0.13 annual change
Runways:1
Longest:5581 × 148 ft (1701 × 45 m), paved

Time
Time Zone:UTC-3 (DST-2)
Local Time:

Weather
METAR:SBNF 292215Z 19004KT 4000 TSRA SCT008 BKN015 FEW030CB 25/23 Q10 11 RERA
TAF:SBNF 292210Z 3006/3106 18015KT 9999 BKN015 TN21/3008Z TX29/3018Z PROB40 3006/3009 22015G25KT 3000 TSRA BKN008 BKN020 FEW035CB
BECMG 3012/301 4 SCT020
RMK PCF

Related Locations
Nearby:
Farthest:KTD: 12365 mi / 19900 km
Kitadaito, Kita Daito Island, JP

Find:

   beyond  
but within

Other Information
Maps:
NOTAMs:
Links:
Sources:

  
flag of Brazil
flag of Santa Catarina
  

Sectional Chart

Flight Planning
at skyvector.com

Satellite Image

Google Maps Satellite View

 

Copyright © 2004-2015 Karl L. Swartz. All rights reserved.
The Great Circle Mapper name and logo are trademarks of the Great Circle Mapper.
All other trademarks mentioned herein belong to their respective owners.
Please see credits for attibutions and further copyright information.

  Follow gcmap on Facebook Follow gcmap on Twitter

hCard Microformat

Geo Microformat